sensor_id;sensor_type;location;lat;lon;timestamp;P1;durP1;ratioP1;P2;durP2;ratioP2
19537;SDS011;9914;51.008;4.300;2023-06-14T00:01:47;72.60;;;69.40;;
19537;SDS011;9914;51.008;4.300;2023-06-14T00:04:13;77.97;;;74.60;;
19537;SDS011;9914;51.008;4.300;2023-06-14T00:06:41;80.30;;;77.00;;
19537;SDS011;9914;51.008;4.300;2023-06-14T00:09:07;79.93;;;76.40;;
19537;SDS011;9914;51.008;4.300;2023-06-14T00:11:34;73.20;;;70.10;;
19537;SDS011;9914;51.008;4.300;2023-06-14T00:13:59;78.00;;;74.80;;
19537;SDS011;9914;51.008;4.300;2023-06-14T00:16:25;80.53;;;77.40;;
19537;SDS011;9914;51.008;4.300;2023-06-14T00:18:50;98.07;;;94.10;;
19537;SDS011;9914;51.008;4.300;2023-06-14T00:21:19;103.93;;;99.77;;
19537;SDS011;9914;51.008;4.300;2023-06-14T00:23:45;94.57;;;91.03;;
19537;SDS011;9914;51.008;4.300;2023-06-14T00:26:11;109.50;;;104.90;;
19537;SDS011;9914;51.008;4.300;2023-06-14T00:28:36;108.63;;;104.57;;
19537;SDS011;9914;51.008;4.300;2023-06-14T00:31:02;113.13;;;108.90;;
19537;SDS011;9914;51.008;4.300;2023-06-14T00:33:27;115.43;;;110.63;;
19537;SDS011;9914;51.008;4.300;2023-06-14T00:35:53;132.83;;;127.37;;
19537;SDS011;9914;51.008;4.300;2023-06-14T00:38:19;163.93;;;157.47;;
19537;SDS011;9914;51.008;4.300;2023-06-14T00:40:46;162.87;;;156.47;;
19537;SDS011;9914;51.008;4.300;2023-06-14T00:43:11;179.13;;;172.53;;
19537;SDS011;9914;51.008;4.300;2023-06-14T00:45:37;185.80;;;178.47;;
19537;SDS011;9914;51.008;4.300;2023-06-14T00:48:04;187.77;;;180.77;;
19537;SDS011;9914;51.008;4.300;2023-06-14T00:50:31;183.37;;;176.17;;
19537;SDS011;9914;51.008;4.300;2023-06-14T00:52:58;236.50;;;227.70;;
19537;SDS011;9914;51.008;4.300;2023-06-14T00:55:26;224.70;;;216.47;;
19537;SDS011;9914;51.008;4.300;2023-06-14T00:57:53;230.53;;;222.10;;
19537;SDS011;9914;51.008;4.300;2023-06-14T01:00:19;223.10;;;214.97;;
19537;SDS011;9914;51.008;4.300;2023-06-14T01:02:45;228.73;;;220.13;;
19537;SDS011;9914;51.008;4.300;2023-06-14T01:05:11;225.10;;;216.87;;
19537;SDS011;9914;51.008;4.300;2023-06-14T01:07:41;226.77;;;218.73;;
19537;SDS011;9914;51.008;4.300;2023-06-14T01:15:17;243.30;;;234.33;;
19537;SDS011;9914;51.008;4.300;2023-06-14T01:17:45;246.40;;;237.53;;
19537;SDS011;9914;51.008;4.300;2023-06-14T01:20:16;234.43;;;225.97;;
19537;SDS011;9914;51.008;4.300;2023-06-14T01:22:51;250.07;;;241.20;;
19537;SDS011;9914;51.008;4.300;2023-06-14T01:25:20;250.87;;;241.87;;
19537;SDS011;9914;51.008;4.300;2023-06-14T01:27:51;279.67;;;269.63;;
19537;SDS011;9914;51.008;4.300;2023-06-14T01:30:18;246.60;;;237.70;;
19537;SDS011;9914;51.008;4.300;2023-06-14T01:32:45;242.87;;;233.93;;
19537;SDS011;9914;51.008;4.300;2023-06-14T01:35:12;242.93;;;234.10;;
19537;SDS011;9914;51.008;4.300;2023-06-14T01:37:37;249.37;;;240.50;;
19537;SDS011;9914;51.008;4.300;2023-06-14T01:40:05;270.67;;;260.97;;
19537;SDS011;9914;51.008;4.300;2023-06-14T01:42:34;267.80;;;258.17;;
19537;SDS011;9914;51.008;4.300;2023-06-14T01:45:01;201.20;;;194.00;;
19537;SDS011;9914;51.008;4.300;2023-06-14T01:47:28;180.90;;;174.10;;
19537;SDS011;9914;51.008;4.300;2023-06-14T01:49:55;209.30;;;201.70;;
19537;SDS011;9914;51.008;4.300;2023-06-14T01:52:20;173.33;;;166.93;;
19537;SDS011;9914;51.008;4.300;2023-06-14T01:54:47;158.53;;;152.40;;
19537;SDS011;9914;51.008;4.300;2023-06-14T01:57:14;161.40;;;155.30;;
19537;SDS011;9914;51.008;4.300;2023-06-14T01:59:40;149.47;;;143.93;;
19537;SDS011;9914;51.008;4.300;2023-06-14T02:02:06;154.63;;;148.63;;
19537;SDS011;9914;51.008;4.300;2023-06-14T02:04:31;158.17;;;152.30;;
19537;SDS011;9914;51.008;4.300;2023-06-14T02:06:57;161.23;;;155.33;;
19537;SDS011;9914;51.008;4.300;2023-06-14T02:09:24;142.27;;;136.77;;
19537;SDS011;9914;51.008;4.300;2023-06-14T02:11:50;151.30;;;145.80;;
19537;SDS011;9914;51.008;4.300;2023-06-14T02:14:15;210.57;;;202.70;;
19537;SDS011;9914;51.008;4.300;2023-06-14T02:16:42;185.17;;;178.50;;
19537;SDS011;9914;51.008;4.300;2023-06-14T02:19:14;171.00;;;164.43;;
19537;SDS011;9914;51.008;4.300;2023-06-14T02:21:41;205.40;;;197.63;;
19537;SDS011;9914;51.008;4.300;2023-06-14T02:24:07;220.27;;;212.07;;
19537;SDS011;9914;51.008;4.300;2023-06-14T02:26:32;192.63;;;185.73;;
19537;SDS011;9914;51.008;4.300;2023-06-14T02:28:58;162.63;;;156.40;;
19537;SDS011;9914;51.008;4.300;2023-06-14T02:31:23;171.00;;;164.77;;
19537;SDS011;9914;51.008;4.300;2023-06-14T02:33:50;154.93;;;149.00;;
19537;SDS011;9914;51.008;4.300;2023-06-14T02:36:15;144.10;;;138.43;;
19537;SDS011;9914;51.008;4.300;2023-06-14T02:38:41;141.47;;;135.97;;
19537;SDS011;9914;51.008;4.300;2023-06-14T02:41:07;134.93;;;129.53;;
19537;SDS011;9914;51.008;4.300;2023-06-14T02:43:32;169.33;;;163.00;;
19537;SDS011;9914;51.008;4.300;2023-06-14T02:45:58;153.17;;;147.33;;
19537;SDS011;9914;51.008;4.300;2023-06-14T02:48:24;191.77;;;184.70;;
19537;SDS011;9914;51.008;4.300;2023-06-14T02:50:49;188.63;;;181.80;;
19537;SDS011;9914;51.008;4.300;2023-06-14T02:53:16;185.57;;;178.83;;
19537;SDS011;9914;51.008;4.300;2023-06-14T02:55:42;194.90;;;187.83;;
19537;SDS011;9914;51.008;4.300;2023-06-14T02:58:07;198.23;;;191.23;;
19537;SDS011;9914;51.008;4.300;2023-06-14T03:00:33;191.67;;;184.57;;
19537;SDS011;9914;51.008;4.300;2023-06-14T03:03:00;185.13;;;178.43;;
19537;SDS011;9914;51.008;4.300;2023-06-14T03:05:26;182.67;;;175.87;;
19537;SDS011;9914;51.008;4.300;2023-06-14T03:07:53;181.73;;;175.00;;
19537;SDS011;9914;51.008;4.300;2023-06-14T03:10:19;162.40;;;156.33;;
19537;SDS011;9914;51.008;4.300;2023-06-14T03:12:45;179.37;;;172.50;;
19537;SDS011;9914;51.008;4.300;2023-06-14T03:15:12;175.07;;;168.40;;
19537;SDS011;9914;51.008;4.300;2023-06-14T03:17:40;169.50;;;162.60;;
19537;SDS011;9914;51.008;4.300;2023-06-14T03:20:10;177.63;;;171.03;;
19537;SDS011;9914;51.008;4.300;2023-06-14T03:22:36;220.10;;;212.17;;
19537;SDS011;9914;51.008;4.300;2023-06-14T03:25:02;184.53;;;177.53;;
19537;SDS011;9914;51.008;4.300;2023-06-14T03:27:29;169.97;;;163.33;;
19537;SDS011;9914;51.008;4.300;2023-06-14T03:29:54;159.37;;;153.23;;
19537;SDS011;9914;51.008;4.300;2023-06-14T03:32:20;166.37;;;160.13;;
19537;SDS011;9914;51.008;4.300;2023-06-14T03:34:46;167.00;;;160.50;;
19537;SDS011;9914;51.008;4.300;2023-06-14T03:37:11;158.73;;;152.83;;
19537;SDS011;9914;51.008;4.300;2023-06-14T03:39:37;249.23;;;239.50;;
19537;SDS011;9914;51.008;4.300;2023-06-14T03:42:03;187.30;;;180.37;;
19537;SDS011;9914;51.008;4.300;2023-06-14T03:44:29;163.97;;;157.97;;
19537;SDS011;9914;51.008;4.300;2023-06-14T03:46:55;177.57;;;170.93;;
19537;SDS011;9914;51.008;4.300;2023-06-14T03:49:20;158.53;;;152.57;;
19537;SDS011;9914;51.008;4.300;2023-06-14T03:51:46;177.80;;;171.17;;
19537;SDS011;9914;51.008;4.300;2023-06-14T03:54:16;183.20;;;176.47;;
19537;SDS011;9914;51.008;4.300;2023-06-14T03:56:41;166.57;;;160.37;;
19537;SDS011;9914;51.008;4.300;2023-06-14T03:59:07;163.67;;;157.70;;
19537;SDS011;9914;51.008;4.300;2023-06-14T04:01:32;170.73;;;164.50;;
19537;SDS011;9914;51.008;4.300;2023-06-14T04:03:58;154.30;;;148.70;;
19537;SDS011;9914;51.008;4.300;2023-06-14T04:06:24;153.53;;;147.83;;
19537;SDS011;9914;51.008;4.300;2023-06-14T04:08:57;272.17;;;260.83;;
19537;SDS011;9914;51.008;4.300;2023-06-14T04:11:27;143.80;;;138.23;;
19537;SDS011;9914;51.008;4.300;2023-06-14T04:13:52;144.07;;;138.73;;
19537;SDS011;9914;51.008;4.300;2023-06-14T04:16:18;145.10;;;138.97;;
19537;SDS011;9914;51.008;4.300;2023-06-14T04:18:44;136.83;;;131.27;;
19537;SDS011;9914;51.008;4.300;2023-06-14T04:21:11;149.73;;;144.00;;
19537;SDS011;9914;51.008;4.300;2023-06-14T04:23:37;142.90;;;137.07;;
19537;SDS011;9914;51.008;4.300;2023-06-14T04:26:03;174.07;;;167.67;;
19537;SDS011;9914;51.008;4.300;2023-06-14T04:28:29;160.97;;;154.83;;
19537;SDS011;9914;51.008;4.300;2023-06-14T04:30:55;135.83;;;130.73;;
19537;SDS011;9914;51.008;4.300;2023-06-14T04:33:21;160.90;;;154.87;;
19537;SDS011;9914;51.008;4.300;2023-06-14T04:35:50;335.00;;;319.20;;
19537;SDS011;9914;51.008;4.300;2023-06-14T04:38:18;156.50;;;149.80;;
19537;SDS011;9914;51.008;4.300;2023-06-14T04:40:48;145.60;;;140.20;;
19537;SDS011;9914;51.008;4.300;2023-06-14T04:43:17;167.40;;;160.83;;
19537;SDS011;9914;51.008;4.300;2023-06-14T04:45:52;156.67;;;150.43;;
19537;SDS011;9914;51.008;4.300;2023-06-14T04:48:19;165.87;;;159.70;;
19537;SDS011;9914;51.008;4.300;2023-06-14T04:50:45;176.73;;;170.07;;
19537;SDS011;9914;51.008;4.300;2023-06-14T04:53:11;171.37;;;164.93;;
19537;SDS011;9914;51.008;4.300;2023-06-14T04:55:37;314.50;;;300.03;;
19537;SDS011;9914;51.008;4.300;2023-06-14T04:58:03;154.50;;;148.83;;
19537;SDS011;9914;51.008;4.300;2023-06-14T05:00:30;160.83;;;154.57;;
19537;SDS011;9914;51.008;4.300;2023-06-14T05:02:55;155.33;;;149.07;;
19537;SDS011;9914;51.008;4.300;2023-06-14T05:05:22;175.00;;;168.53;;
19537;SDS011;9914;51.008;4.300;2023-06-14T05:07:48;196.63;;;189.23;;
19537;SDS011;9914;51.008;4.300;2023-06-14T05:10:14;156.80;;;149.90;;
19537;SDS011;9914;51.008;4.300;2023-06-14T05:12:40;190.17;;;181.50;;
19537;SDS011;9914;51.008;4.300;2023-06-14T05:15:09;148.83;;;142.87;;
19537;SDS011;9914;51.008;4.300;2023-06-14T05:17:35;180.37;;;173.37;;
19537;SDS011;9914;51.008;4.300;2023-06-14T05:20:01;148.20;;;142.50;;
19537;SDS011;9914;51.008;4.300;2023-06-14T05:22:28;137.67;;;131.10;;
19537;SDS011;9914;51.008;4.300;2023-06-14T05:24:53;133.70;;;128.67;;
19537;SDS011;9914;51.008;4.300;2023-06-14T05:27:19;191.10;;;183.20;;
19537;SDS011;9914;51.008;4.300;2023-06-14T05:29:45;139.67;;;134.43;;
19537;SDS011;9914;51.008;4.300;2023-06-14T05:32:10;122.60;;;117.60;;
19537;SDS011;9914;51.008;4.300;2023-06-14T05:34:36;132.97;;;127.77;;
19537;SDS011;9914;51.008;4.300;2023-06-14T05:37:01;183.70;;;175.73;;
19537;SDS011;9914;51.008;4.300;2023-06-14T05:39:29;112.97;;;108.43;;
19537;SDS011;9914;51.008;4.300;2023-06-14T05:41:55;148.90;;;143.40;;
19537;SDS011;9914;51.008;4.300;2023-06-14T05:44:20;124.20;;;119.17;;
19537;SDS011;9914;51.008;4.300;2023-06-14T05:46:46;165.80;;;159.47;;
19537;SDS011;9914;51.008;4.300;2023-06-14T05:49:12;147.33;;;141.60;;
19537;SDS011;9914;51.008;4.300;2023-06-14T05:51:38;141.00;;;134.63;;
19537;SDS011;9914;51.008;4.300;2023-06-14T05:54:03;180.40;;;173.33;;
19537;SDS011;9914;51.008;4.300;2023-06-14T05:56:30;142.37;;;136.70;;
19537;SDS011;9914;51.008;4.300;2023-06-14T05:58:55;240.03;;;230.30;;
19537;SDS011;9914;51.008;4.300;2023-06-14T06:01:21;133.97;;;128.83;;
19537;SDS011;9914;51.008;4.300;2023-06-14T06:03:47;138.03;;;132.23;;
19537;SDS011;9914;51.008;4.300;2023-06-14T06:06:13;144.00;;;138.33;;
19537;SDS011;9914;51.008;4.300;2023-06-14T06:08:38;186.53;;;179.23;;
19537;SDS011;9914;51.008;4.300;2023-06-14T06:11:05;117.10;;;112.17;;
19537;SDS011;9914;51.008;4.300;2023-06-14T06:13:31;123.50;;;118.50;;
19537;SDS011;9914;51.008;4.300;2023-06-14T06:15:57;99.80;;;95.53;;
19537;SDS011;9914;51.008;4.300;2023-06-14T06:18:23;142.73;;;137.03;;
19537;SDS011;9914;51.008;4.300;2023-06-14T06:20:49;108.87;;;104.37;;
19537;SDS011;9914;51.008;4.300;2023-06-14T06:23:14;116.63;;;111.93;;
19537;SDS011;9914;51.008;4.300;2023-06-14T06:25:40;109.57;;;105.10;;
19537;SDS011;9914;51.008;4.300;2023-06-14T06:28:06;157.03;;;150.43;;
19537;SDS011;9914;51.008;4.300;2023-06-14T06:30:32;175.87;;;168.97;;
19537;SDS011;9914;51.008;4.300;2023-06-14T06:32:57;117.40;;;112.50;;
19537;SDS011;9914;51.008;4.300;2023-06-14T06:35:23;151.10;;;145.00;;
19537;SDS011;9914;51.008;4.300;2023-06-14T06:37:49;91.10;;;87.07;;
19537;SDS011;9914;51.008;4.300;2023-06-14T06:40:15;91.77;;;87.13;;
19537;SDS011;9914;51.008;4.300;2023-06-14T06:42:41;96.27;;;92.20;;
19537;SDS011;9914;51.008;4.300;2023-06-14T06:45:06;103.50;;;99.20;;
19537;SDS011;9914;51.008;4.300;2023-06-14T06:47:32;178.87;;;169.23;;
19537;SDS011;9914;51.008;4.300;2023-06-14T06:49:58;86.10;;;82.50;;
19537;SDS011;9914;51.008;4.300;2023-06-14T06:52:23;60.63;;;57.60;;
19537;SDS011;9914;51.008;4.300;2023-06-14T06:54:49;49.53;;;47.13;;
19537;SDS011;9914;51.008;4.300;2023-06-14T06:57:19;46.43;;;43.97;;
19537;SDS011;9914;51.008;4.300;2023-06-14T06:59:47;42.63;;;40.63;;
19537;SDS011;9914;51.008;4.300;2023-06-14T07:02:13;41.03;;;38.73;;
19537;SDS011;9914;51.008;4.300;2023-06-14T07:04:39;39.80;;;37.33;;
19537;SDS011;9914;51.008;4.300;2023-06-14T07:07:05;36.40;;;34.50;;
19537;SDS011;9914;51.008;4.300;2023-06-14T07:09:30;49.00;;;46.23;;
19537;SDS011;9914;51.008;4.300;2023-06-14T07:11:56;44.13;;;41.93;;
19537;SDS011;9914;51.008;4.300;2023-06-14T07:14:21;46.40;;;43.63;;
19537;SDS011;9914;51.008;4.300;2023-06-14T07:16:48;44.43;;;42.17;;
19537;SDS011;9914;51.008;4.300;2023-06-14T07:19:14;44.10;;;41.70;;
19537;SDS011;9914;51.008;4.300;2023-06-14T07:21:40;42.67;;;40.57;;
19537;SDS011;9914;51.008;4.300;2023-06-14T07:24:06;48.93;;;46.50;;
19537;SDS011;9914;51.008;4.300;2023-06-14T07:26:32;50.87;;;47.93;;
19537;SDS011;9914;51.008;4.300;2023-06-14T07:28:59;62.80;;;60.07;;
19537;SDS011;9914;51.008;4.300;2023-06-14T07:31:25;69.20;;;66.20;;
19537;SDS011;9914;51.008;4.300;2023-06-14T07:33:51;58.93;;;55.90;;
19537;SDS011;9914;51.008;4.300;2023-06-14T07:36:17;83.37;;;78.83;;
19537;SDS011;9914;51.008;4.300;2023-06-14T07:38:43;85.60;;;81.87;;
19537;SDS011;9914;51.008;4.300;2023-06-14T07:41:09;70.03;;;66.57;;
19537;SDS011;9914;51.008;4.300;2023-06-14T07:43:34;67.00;;;64.13;;
19537;SDS011;9914;51.008;4.300;2023-06-14T07:46:00;53.60;;;50.20;;
19537;SDS011;9914;51.008;4.300;2023-06-14T07:48:27;80.57;;;77.03;;
19537;SDS011;9914;51.008;4.300;2023-06-14T07:50:52;49.33;;;47.03;;
19537;SDS011;9914;51.008;4.300;2023-06-14T07:53:18;59.97;;;57.03;;
19537;SDS011;9914;51.008;4.300;2023-06-14T07:55:44;59.90;;;56.90;;
19537;SDS011;9914;51.008;4.300;2023-06-14T07:58:09;85.17;;;81.37;;
19537;SDS011;9914;51.008;4.300;2023-06-14T08:00:35;51.53;;;49.03;;
19537;SDS011;9914;51.008;4.300;2023-06-14T08:03:01;82.93;;;79.23;;
19537;SDS011;9914;51.008;4.300;2023-06-14T08:05:27;48.90;;;46.60;;
19537;SDS011;9914;51.008;4.300;2023-06-14T08:07:53;50.60;;;48.40;;
19537;SDS011;9914;51.008;4.300;2023-06-14T08:10:20;45.67;;;43.43;;
19537;SDS011;9914;51.008;4.300;2023-06-14T08:12:46;56.67;;;54.13;;
19537;SDS011;9914;51.008;4.300;2023-06-14T08:15:11;42.67;;;40.17;;
19537;SDS011;9914;51.008;4.300;2023-06-14T08:17:37;38.87;;;36.53;;
19537;SDS011;9914;51.008;4.300;2023-06-14T08:20:03;35.93;;;34.13;;
19537;SDS011;9914;51.008;4.300;2023-06-14T08:22:30;39.30;;;37.30;;
19537;SDS011;9914;51.008;4.300;2023-06-14T08:24:59;60.70;;;57.77;;
19537;SDS011;9914;51.008;4.300;2023-06-14T08:27:27;39.90;;;37.53;;
19537;SDS011;9914;51.008;4.300;2023-06-14T08:29:53;40.80;;;38.47;;
19537;SDS011;9914;51.008;4.300;2023-06-14T08:32:18;57.87;;;55.03;;
19537;SDS011;9914;51.008;4.300;2023-06-14T08:34:44;44.07;;;41.63;;
19537;SDS011;9914;51.008;4.300;2023-06-14T08:37:10;47.57;;;45.27;;
19537;SDS011;9914;51.008;4.300;2023-06-14T08:39:36;108.17;;;103.33;;
19537;SDS011;9914;51.008;4.300;2023-06-14T08:42:02;45.90;;;42.97;;
19537;SDS011;9914;51.008;4.300;2023-06-14T08:44:29;55.03;;;52.43;;
19537;SDS011;9914;51.008;4.300;2023-06-14T08:46:58;62.57;;;59.53;;
19537;SDS011;9914;51.008;4.300;2023-06-14T08:49:24;51.77;;;48.90;;
19537;SDS011;9914;51.008;4.300;2023-06-14T08:51:53;42.33;;;40.00;;
19537;SDS011;9914;51.008;4.300;2023-06-14T08:54:27;52.67;;;49.77;;
19537;SDS011;9914;51.008;4.300;2023-06-14T08:56:59;62.70;;;59.13;;
19537;SDS011;9914;51.008;4.300;2023-06-14T08:59:28;54.20;;;51.77;;
19537;SDS011;9914;51.008;4.300;2023-06-14T09:01:56;42.73;;;40.60;;
19537;SDS011;9914;51.008;4.300;2023-06-14T09:04:22;32.53;;;30.83;;
19537;SDS011;9914;51.008;4.300;2023-06-14T09:06:49;49.97;;;47.60;;
19537;SDS011;9914;51.008;4.300;2023-06-14T09:09:19;84.57;;;81.03;;
19537;SDS011;9914;51.008;4.300;2023-06-14T09:11:45;39.90;;;37.80;;
19537;SDS011;9914;51.008;4.300;2023-06-14T09:14:11;79.17;;;75.63;;
19537;SDS011;9914;51.008;4.300;2023-06-14T09:16:37;61.50;;;58.67;;
19537;SDS011;9914;51.008;4.300;2023-06-14T09:19:02;36.93;;;34.57;;
19537;SDS011;9914;51.008;4.300;2023-06-14T09:21:28;40.80;;;38.40;;
19537;SDS011;9914;51.008;4.300;2023-06-14T09:23:59;26.30;;;24.77;;
19537;SDS011;9914;51.008;4.300;2023-06-14T09:26:27;53.80;;;51.20;;
19537;SDS011;9914;51.008;4.300;2023-06-14T09:28:52;43.33;;;41.10;;
19537;SDS011;9914;51.008;4.300;2023-06-14T09:31:21;62.50;;;59.00;;
19537;SDS011;9914;51.008;4.300;2023-06-14T09:33:50;100.40;;;96.10;;
19537;SDS011;9914;51.008;4.300;2023-06-14T09:36:17;51.20;;;48.77;;
19537;SDS011;9914;51.008;4.300;2023-06-14T09:41:19;45.47;;;43.30;;
19537;SDS011;9914;51.008;4.300;2023-06-14T09:43:45;97.27;;;93.03;;
19537;SDS011;9914;51.008;4.300;2023-06-14T09:46:12;37.27;;;35.20;;
19537;SDS011;9914;51.008;4.300;2023-06-14T09:48:38;25.97;;;24.73;;
19537;SDS011;9914;51.008;4.300;2023-06-14T09:51:07;26.20;;;24.77;;
19537;SDS011;9914;51.008;4.300;2023-06-14T09:53:35;27.13;;;25.53;;
19537;SDS011;9914;51.008;4.300;2023-06-14T09:56:02;30.40;;;28.87;;
19537;SDS011;9914;51.008;4.300;2023-06-14T09:58:29;35.30;;;33.43;;
19537;SDS011;9914;51.008;4.300;2023-06-14T10:01:01;22.97;;;21.73;;
19537;SDS011;9914;51.008;4.300;2023-06-14T10:03:28;35.53;;;32.93;;
19537;SDS011;9914;51.008;4.300;2023-06-14T10:05:55;52.57;;;49.80;;
19537;SDS011;9914;51.008;4.300;2023-06-14T10:08:27;20.43;;;19.20;;
19537;SDS011;9914;51.008;4.300;2023-06-14T10:10:55;32.13;;;30.37;;
19537;SDS011;9914;51.008;4.300;2023-06-14T10:13:21;24.83;;;23.37;;
19537;SDS011;9914;51.008;4.300;2023-06-14T10:21:21;19.73;;;18.53;;
19537;SDS011;9914;51.008;4.300;2023-06-14T10:23:57;33.23;;;31.27;;
19537;SDS011;9914;51.008;4.300;2023-06-14T10:26:28;17.37;;;16.10;;
19537;SDS011;9914;51.008;4.300;2023-06-14T10:29:01;28.97;;;27.27;;
19537;SDS011;9914;51.008;4.300;2023-06-14T10:31:41;18.70;;;17.57;;
19537;SDS011;9914;51.008;4.300;2023-06-14T10:34:11;30.20;;;28.60;;
19537;SDS011;9914;51.008;4.300;2023-06-14T10:36:38;18.33;;;17.43;;
19537;SDS011;9914;51.008;4.300;2023-06-14T10:39:13;31.80;;;30.13;;
19537;SDS011;9914;51.008;4.300;2023-06-14T10:41:42;25.40;;;23.27;;
19537;SDS011;9914;51.008;4.300;2023-06-14T10:49:20;18.37;;;17.37;;
19537;SDS011;9914;51.008;4.300;2023-06-14T10:52:07;32.20;;;29.17;;
19537;SDS011;9914;51.008;4.300;2023-06-14T10:54:47;25.20;;;24.03;;
19537;SDS011;9914;51.008;4.300;2023-06-14T10:57:34;33.23;;;31.70;;
19537;SDS011;9914;51.008;4.300;2023-06-14T11:00:07;33.53;;;32.07;;
19537;SDS011;9914;51.008;4.300;2023-06-14T11:08:26;41.37;;;39.43;;
19537;SDS011;9914;51.008;4.300;2023-06-14T11:11:11;22.43;;;21.23;;
19537;SDS011;9914;51.008;4.300;2023-06-14T11:13:38;20.60;;;19.27;;
19537;SDS011;9914;51.008;4.300;2023-06-14T11:16:15;20.43;;;19.43;;
19537;SDS011;9914;51.008;4.300;2023-06-14T11:18:44;26.03;;;24.77;;
19537;SDS011;9914;51.008;4.300;2023-06-14T11:21:10;20.67;;;19.13;;
19537;SDS011;9914;51.008;4.300;2023-06-14T11:23:40;24.10;;;21.97;;
19537;SDS011;9914;51.008;4.300;2023-06-14T11:26:05;17.13;;;16.00;;
19537;SDS011;9914;51.008;4.300;2023-06-14T11:28:40;29.57;;;27.80;;
19537;SDS011;9914;51.008;4.300;2023-06-14T11:31:06;18.20;;;17.27;;
19537;SDS011;9914;51.008;4.300;2023-06-14T11:33:33;26.20;;;24.83;;
19537;SDS011;9914;51.008;4.300;2023-06-14T11:36:01;35.77;;;33.93;;
19537;SDS011;9914;51.008;4.300;2023-06-14T11:38:29;28.73;;;27.13;;
19537;SDS011;9914;51.008;4.300;2023-06-14T11:40:58;38.33;;;36.43;;
19537;SDS011;9914;51.008;4.300;2023-06-14T11:43:25;52.60;;;50.37;;
19537;SDS011;9914;51.008;4.300;2023-06-14T11:45:52;49.53;;;46.43;;
19537;SDS011;9914;51.008;4.300;2023-06-14T11:48:18;59.27;;;56.77;;
19537;SDS011;9914;51.008;4.300;2023-06-14T11:50:44;37.43;;;35.27;;
19537;SDS011;9914;51.008;4.300;2023-06-14T11:53:09;43.13;;;41.30;;
19537;SDS011;9914;51.008;4.300;2023-06-14T11:55:38;54.30;;;51.70;;
19537;SDS011;9914;51.008;4.300;2023-06-14T11:58:04;34.67;;;33.03;;
19537;SDS011;9914;51.008;4.300;2023-06-14T12:00:30;35.03;;;33.27;;
19537;SDS011;9914;51.008;4.300;2023-06-14T12:02:56;39.87;;;38.20;;
19537;SDS011;9914;51.008;4.300;2023-06-14T12:05:22;83.93;;;80.27;;
19537;SDS011;9914;51.008;4.300;2023-06-14T12:07:48;38.17;;;36.47;;
19537;SDS011;9914;51.008;4.300;2023-06-14T12:10:15;44.83;;;42.87;;
19537;SDS011;9914;51.008;4.300;2023-06-14T12:12:42;42.80;;;40.60;;
19537;SDS011;9914;51.008;4.300;2023-06-14T12:15:08;35.27;;;33.50;;
19537;SDS011;9914;51.008;4.300;2023-06-14T12:17:36;39.93;;;38.33;;
19537;SDS011;9914;51.008;4.300;2023-06-14T12:20:07;37.20;;;35.27;;
19537;SDS011;9914;51.008;4.300;2023-06-14T12:22:39;40.13;;;38.30;;
19537;SDS011;9914;51.008;4.300;2023-06-14T12:25:26;31.80;;;30.37;;
19537;SDS011;9914;51.008;4.300;2023-06-14T12:27:52;61.27;;;58.67;;
19537;SDS011;9914;51.008;4.300;2023-06-14T12:30:21;41.63;;;39.80;;
19537;SDS011;9914;51.008;4.300;2023-06-14T12:32:47;64.83;;;62.13;;
19537;SDS011;9914;51.008;4.300;2023-06-14T12:35:13;46.50;;;44.50;;
19537;SDS011;9914;51.008;4.300;2023-06-14T12:37:40;45.87;;;43.90;;
19537;SDS011;9914;51.008;4.300;2023-06-14T12:40:06;44.20;;;42.27;;
19537;SDS011;9914;51.008;4.300;2023-06-14T12:42:33;46.30;;;44.20;;
19537;SDS011;9914;51.008;4.300;2023-06-14T12:44:59;72.80;;;69.37;;
19537;SDS011;9914;51.008;4.300;2023-06-14T12:47:24;52.57;;;50.07;;
19537;SDS011;9914;51.008;4.300;2023-06-14T12:49:50;58.77;;;56.27;;
19537;SDS011;9914;51.008;4.300;2023-06-14T12:52:16;55.53;;;52.73;;
19537;SDS011;9914;51.008;4.300;2023-06-14T12:54:41;78.50;;;75.23;;
19537;SDS011;9914;51.008;4.300;2023-06-14T12:57:07;78.47;;;74.37;;
19537;SDS011;9914;51.008;4.300;2023-06-14T12:59:33;54.27;;;51.93;;
19537;SDS011;9914;51.008;4.300;2023-06-14T13:02:14;67.67;;;64.77;;
19537;SDS011;9914;51.008;4.300;2023-06-14T13:04:41;53.73;;;51.33;;
19537;SDS011;9914;51.008;4.300;2023-06-14T13:07:08;53.67;;;51.30;;
19537;SDS011;9914;51.008;4.300;2023-06-14T13:09:33;41.80;;;39.90;;
19537;SDS011;9914;51.008;4.300;2023-06-14T13:12:00;42.40;;;40.23;;
19537;SDS011;9914;51.008;4.300;2023-06-14T13:14:26;35.47;;;33.80;;
19537;SDS011;9914;51.008;4.300;2023-06-14T13:16:52;47.67;;;45.30;;
19537;SDS011;9914;51.008;4.300;2023-06-14T13:19:17;53.47;;;50.70;;
19537;SDS011;9914;51.008;4.300;2023-06-14T13:21:43;39.67;;;37.77;;
19537;SDS011;9914;51.008;4.300;2023-06-14T13:24:09;39.77;;;38.00;;
19537;SDS011;9914;51.008;4.300;2023-06-14T13:26:34;40.23;;;38.60;;
19537;SDS011;9914;51.008;4.300;2023-06-14T13:29:00;41.83;;;40.00;;
19537;SDS011;9914;51.008;4.300;2023-06-14T13:31:26;42.47;;;40.43;;
19537;SDS011;9914;51.008;4.300;2023-06-14T13:33:51;36.77;;;35.07;;
19537;SDS011;9914;51.008;4.300;2023-06-14T13:36:17;39.17;;;37.43;;
19537;SDS011;9914;51.008;4.300;2023-06-14T13:38:43;39.53;;;37.63;;
19537;SDS011;9914;51.008;4.300;2023-06-14T13:41:08;35.70;;;34.17;;
19537;SDS011;9914;51.008;4.300;2023-06-14T13:43:34;36.53;;;34.90;;
19537;SDS011;9914;51.008;4.300;2023-06-14T13:46:00;39.40;;;37.10;;
19537;SDS011;9914;51.008;4.300;2023-06-14T13:48:25;36.20;;;34.70;;
19537;SDS011;9914;51.008;4.300;2023-06-14T13:50:51;41.53;;;39.93;;
19537;SDS011;9914;51.008;4.300;2023-06-14T13:53:17;38.43;;;36.43;;
19537;SDS011;9914;51.008;4.300;2023-06-14T13:55:43;47.60;;;45.40;;
19537;SDS011;9914;51.008;4.300;2023-06-14T13:58:09;36.87;;;35.17;;
19537;SDS011;9914;51.008;4.300;2023-06-14T14:00:35;57.10;;;54.93;;
19537;SDS011;9914;51.008;4.300;2023-06-14T14:03:05;56.40;;;54.20;;
19537;SDS011;9914;51.008;4.300;2023-06-14T14:05:31;38.50;;;36.67;;
19537;SDS011;9914;51.008;4.300;2023-06-14T14:07:56;36.87;;;35.37;;
19537;SDS011;9914;51.008;4.300;2023-06-14T14:10:23;36.57;;;35.03;;
19537;SDS011;9914;51.008;4.300;2023-06-14T14:12:50;41.37;;;39.60;;
19537;SDS011;9914;51.008;4.300;2023-06-14T14:15:16;42.83;;;41.13;;
19537;SDS011;9914;51.008;4.300;2023-06-14T14:17:42;38.27;;;36.17;;
19537;SDS011;9914;51.008;4.300;2023-06-14T14:20:08;37.77;;;36.10;;
19537;SDS011;9914;51.008;4.300;2023-06-14T14:22:34;38.47;;;36.77;;
19537;SDS011;9914;51.008;4.300;2023-06-14T14:24:59;34.90;;;33.40;;
19537;SDS011;9914;51.008;4.300;2023-06-14T14:27:25;38.20;;;35.20;;
19537;SDS011;9914;51.008;4.300;2023-06-14T14:29:51;40.10;;;38.50;;
19537;SDS011;9914;51.008;4.300;2023-06-14T14:32:16;33.37;;;32.03;;
19537;SDS011;9914;51.008;4.300;2023-06-14T14:34:42;32.97;;;31.63;;
19537;SDS011;9914;51.008;4.300;2023-06-14T14:37:07;35.73;;;34.30;;
19537;SDS011;9914;51.008;4.300;2023-06-14T14:39:33;35.43;;;33.80;;
19537;SDS011;9914;51.008;4.300;2023-06-14T14:41:59;34.20;;;32.60;;
19537;SDS011;9914;51.008;4.300;2023-06-14T14:44:25;33.90;;;32.03;;
19537;SDS011;9914;51.008;4.300;2023-06-14T14:46:50;35.27;;;33.90;;